Time;durP1;ratioP1;P1;durP2;ratioP2;P2;SDS_P1;SDS_P2;PMS_P1;PMS_P2;Temp;Humidity;BMP_temperature;BMP_pressure;BME280_temperature;BME280_humidity;BME280_pressure;Samples;Min_cycle;Max_cycle;Signal;HPM_P1;HPM_P2
2021/07/22 00:01:24;;;;;;;16.58;10.20;;;19.80;76.70;;;;;;5033860;28;20112;-78
2021/07/22 00:03:50;;;;;;;16.05;10.02;;;19.70;76.80;;;;;;5035511;28;20029;-79
2021/07/22 00:06:16;;;;;;;14.20;9.52;;;19.60;77.00;;;;;;5034076;28;20021;-79
2021/07/22 00:08:41;;;;;;;14.88;9.30;;;19.60;77.20;;;;;;5017480;28;20022;-79
2021/07/22 00:11:07;;;;;;;17.00;9.82;;;19.60;77.40;;;;;;5035189;28;20034;-78
2021/07/22 00:13:33;;;;;;;14.98;9.15;;;19.50;77.50;;;;;;5035246;28;20037;-78
2021/07/22 00:15:59;;;;;;;18.85;10.82;;;19.50;77.70;;;;;;5017485;28;20040;-78
2021/07/22 00:18:25;;;;;;;16.55;11.00;;;19.40;77.80;;;;;;5017354;28;20064;-78
2021/07/22 00:20:51;;;;;;;17.52;10.27;;;19.50;78.10;;;;;;5033849;28;20471;-78
2021/07/22 00:23:16;;;;;;;15.70;10.82;;;19.40;78.80;;;;;;5033670;28;20022;-78
2021/07/22 00:25:42;;;;;;;15.75;10.50;;;19.30;78.30;;;;;;5017293;28;20033;-78
2021/07/22 00:28:09;;;;;;;16.80;10.98;;;19.30;78.60;;;;;;5017144;28;20074;-79
2021/07/22 00:30:35;;;;;;;17.38;11.15;;;19.30;78.90;;;;;;5033762;28;20014;-79
2021/07/22 00:33:01;;;;;;;17.88;11.77;;;19.20;79.10;;;;;;5034899;28;20026;-79
2021/07/22 00:35:28;;;;;;;15.75;9.43;;;19.20;79.20;;;;;;5017162;28;20035;-79
2021/07/22 00:37:53;;;;;;;20.10;11.23;;;19.10;79.40;;;;;;5034849;28;20031;-79
2021/07/22 00:40:19;;;;;;;18.35;10.80;;;19.00;79.60;;;;;;5016805;28;20029;-79
2021/07/22 00:43:01;;;;;;;16.48;10.40;;;19.00;79.80;;;;;;5017104;28;20116;-79
2021/07/22 00:45:28;;;;;;;16.23;10.18;;;19.00;80.10;;;;;;5033169;28;20024;-79
2021/07/22 00:47:55;;;;;;;15.68;10.38;;;18.90;80.20;;;;;;5033557;28;20075;-79
2021/07/22 00:50:21;;;;;;;15.35;11.07;;;18.90;80.40;;;;;;5017148;28;20395;-79
2021/07/22 00:52:47;;;;;;;16.83;11.10;;;18.80;80.60;;;;;;5033815;28;20432;-80
2021/07/22 00:55:22;;;;;;;18.83;11.65;;;18.80;80.90;;;;;;5017203;28;20030;-79
2021/07/22 00:57:48;;;;;;;17.58;11.02;;;18.80;81.20;;;;;;5033685;28;20133;-79
2021/07/22 01:00:14;;;;;;;17.88;10.77;;;18.70;81.30;;;;;;5033412;28;20116;-79
2021/07/22 01:02:39;;;;;;;16.55;10.70;;;18.70;81.40;;;;;;5033436;28;20151;-79
2021/07/22 01:05:06;;;;;;;16.00;10.25;;;18.70;81.60;;;;;;5033329;28;20029;-79
2021/07/22 01:07:32;;;;;;;18.48;11.10;;;18.70;81.80;;;;;;5016679;28;20025;-79
2021/07/22 01:09:57;;;;;;;16.33;10.23;;;18.60;81.90;;;;;;5032916;28;20111;-79
2021/07/22 01:12:23;;;;;;;16.30;10.75;;;18.60;82.00;;;;;;5016298;28;20032;-79
2021/07/22 01:14:49;;;;;;;15.80;10.32;;;18.60;82.80;;;;;;5016227;28;20033;-79
2021/07/22 01:17:37;;;;;;;17.48;10.23;;;18.60;82.40;;;;;;5016422;28;20026;-79
2021/07/22 01:20:13;;;;;;;15.13;9.93;;;18.60;82.70;;;;;;5032449;28;20037;-79
2021/07/22 01:22:39;;;;;;;19.30;11.70;;;18.60;82.70;;;;;;5032693;28;20436;-79
2021/07/22 01:25:05;;;;;;;15.77;9.95;;;18.60;82.80;;;;;;5032711;28;20025;-79
2021/07/22 01:27:31;;;;;;;16.50;10.85;;;18.60;83.00;;;;;;5016171;28;20486;-79
2021/07/22 01:29:57;;;;;;;17.73;11.25;;;18.60;83.10;;;;;;5032480;28;20036;-79
2021/07/22 01:32:22;;;;;;;16.20;10.77;;;18.50;83.20;;;;;;5032485;28;20026;-79
2021/07/22 01:34:48;;;;;;;17.52;11.13;;;18.50;83.40;;;;;;5015926;28;20474;-79
2021/07/22 01:37:14;;;;;;;15.85;10.07;;;18.50;83.60;;;;;;5032847;28;20067;-79
2021/07/22 01:39:40;;;;;;;15.25;9.60;;;18.40;83.70;;;;;;5015891;28;20075;-79
2021/07/22 01:42:06;;;;;;;16.52;10.98;;;18.40;83.90;;;;;;5032302;28;20037;-79
2021/07/22 01:44:32;;;;;;;17.48;11.13;;;18.30;84.00;;;;;;5033645;28;20021;-79
2021/07/22 01:46:58;;;;;;;15.27;10.07;;;18.30;84.20;;;;;;5032250;28;20499;-79
2021/07/22 01:49:24;;;;;;;16.13;10.15;;;18.30;84.40;;;;;;5015880;28;20083;-79
2021/07/22 01:51:50;;;;;;;18.70;10.90;;;18.20;84.50;;;;;;5032303;28;20026;-79
2021/07/22 01:54:15;;;;;;;18.25;11.38;;;18.20;84.70;;;;;;5032142;28;20041;-79
2021/07/22 01:56:41;;;;;;;20.23;12.75;;;18.20;84.80;;;;;;5032228;28;20025;-79
2021/07/22 01:59:07;;;;;;;18.92;11.48;;;18.10;85.00;;;;;;5015719;28;20501;-78
2021/07/22 02:01:32;;;;;;;18.17;11.60;;;18.20;85.10;;;;;;5015499;28;20397;-78
2021/07/22 02:03:58;;;;;;;18.38;12.02;;;18.10;85.20;;;;;;5015690;28;20029;-79
2021/07/22 02:06:24;;;;;;;21.25;12.40;;;18.10;85.30;;;;;;5015243;28;20028;-78
2021/07/22 02:08:49;;;;;;;19.40;12.07;;;18.10;85.50;;;;;;5033427;28;20473;-78
2021/07/22 02:11:15;;;;;;;21.13;11.55;;;18.00;85.50;;;;;;5015666;28;20124;-79
2021/07/22 02:13:40;;;;;;;20.85;12.60;;;18.00;85.60;;;;;;5033285;28;20104;-78
2021/07/22 02:16:09;;;;;;;20.77;12.00;;;18.00;85.70;;;;;;5032025;28;20029;-78
2021/07/22 02:18:35;;;;;;;18.50;12.40;;;18.00;85.90;;;;;;5015469;28;20030;-78
2021/07/22 02:21:05;;;;;;;18.77;12.05;;;18.00;86.00;;;;;;5031931;28;20032;-78
2021/07/22 02:23:31;;;;;;;18.88;11.65;;;18.00;86.20;;;;;;5031993;28;20370;-78
2021/07/22 02:25:57;;;;;;;20.40;12.50;;;18.00;86.30;;;;;;5031975;28;20026;-78
2021/07/22 02:28:22;;;;;;;18.23;11.18;;;18.00;86.50;;;;;;5015295;28;20104;-78
2021/07/22 02:30:48;;;;;;;18.58;12.20;;;18.00;86.50;;;;;;5033063;28;20033;-78
2021/07/22 02:33:14;;;;;;;17.80;12.43;;;18.00;86.60;;;;;;5031850;28;20036;-79
2021/07/22 02:35:39;;;;;;;19.23;11.70;;;17.90;86.60;;;;;;5031852;28;20057;-78
2021/07/22 02:38:05;;;;;;;19.83;12.68;;;17.90;86.70;;;;;;5031744;28;20449;-79
2021/07/22 02:40:30;;;;;;;21.95;13.55;;;17.90;86.70;;;;;;5015296;28;20120;-78
2021/07/22 02:42:56;;;;;;;23.58;13.02;;;17.90;86.90;;;;;;5015227;28;20033;-78
2021/07/22 02:45:22;;;;;;;20.77;12.13;;;17.80;86.90;;;;;;5015250;28;20032;-78
2021/07/22 02:47:47;;;;;;;18.65;12.25;;;17.80;87.00;;;;;;5031757;28;20075;-78
2021/07/22 02:50:13;;;;;;;18.45;12.60;;;17.70;87.20;;;;;;5015280;28;20087;-78
2021/07/22 02:52:39;;;;;;;18.75;12.77;;;17.70;87.30;;;;;;5031526;28;20084;-78
2021/07/22 02:55:05;;;;;;;20.90;12.10;;;17.70;87.50;;;;;;5032861;28;20037;-78
2021/07/22 02:57:30;;;;;;;24.38;13.70;;;17.70;87.70;;;;;;5031497;28;20057;-78
2021/07/22 02:59:58;;;;;;;20.63;12.38;;;17.60;87.70;;;;;;5014838;28;20041;-78
2021/07/22 03:02:24;;;;;;;19.42;12.63;;;17.60;87.90;;;;;;5015469;28;20026;-78
2021/07/22 03:04:49;;;;;;;18.77;11.80;;;17.60;87.90;;;;;;5031490;28;20380;-79
2021/07/22 03:07:15;;;;;;;23.13;12.95;;;17.60;88.00;;;;;;5015093;28;20025;-78
2021/07/22 03:09:40;;;;;;;22.55;12.68;;;17.50;88.10;;;;;;5031809;28;20048;-78
2021/07/22 03:12:07;;;;;;;21.63;13.32;;;17.50;88.30;;;;;;5015001;28;20095;-78
2021/07/22 03:14:32;;;;;;;20.10;13.63;;;17.40;88.30;;;;;;5032697;28;20109;-79
2021/07/22 03:16:58;;;;;;;23.67;13.68;;;17.40;88.40;;;;;;5031827;28;20484;-79
2021/07/22 03:19:23;;;;;;;19.42;12.88;;;17.30;88.60;;;;;;5017558;28;20040;-79
2021/07/22 03:21:49;;;;;;;20.83;12.23;;;17.30;88.80;;;;;;5018412;28;20481;-79
2021/07/22 03:24:14;;;;;;;18.95;12.50;;;17.30;88.90;;;;;;5018414;28;20025;-79
2021/07/22 03:26:40;;;;;;;19.65;12.48;;;17.20;89.00;;;;;;5036174;28;20025;-79
2021/07/22 03:29:06;;;;;;;21.17;12.88;;;17.20;89.10;;;;;;5018305;28;20507;-78
2021/07/22 03:31:31;;;;;;;21.65;13.32;;;17.20;89.20;;;;;;5018263;28;20025;-78
2021/07/22 03:33:57;;;;;;;17.60;11.27;;;17.20;89.40;;;;;;5018305;28;20385;-78
2021/07/22 03:36:23;;;;;;;19.17;13.02;;;17.10;89.50;;;;;;5034762;28;20481;-78
2021/07/22 03:38:48;;;;;;;19.13;12.20;;;17.10;89.60;;;;;;5018073;28;20116;-78
2021/07/22 03:41:15;;;;;;;22.92;12.98;;;17.10;89.80;;;;;;5018014;28;20048;-78
2021/07/22 03:43:41;;;;;;;21.10;12.23;;;17.10;90.00;;;;;;5018123;28;20116;-78
2021/07/22 03:46:06;;;;;;;22.30;13.38;;;17.10;90.00;;;;;;5018021;28;20059;-78
2021/07/22 03:48:32;;;;;;;23.05;13.00;;;17.10;90.10;;;;;;5034607;28;20029;-78
2021/07/22 03:50:57;;;;;;;20.45;13.70;;;17.00;90.10;;;;;;5034399;28;20040;-78
2021/07/22 03:53:23;;;;;;;18.92;11.70;;;17.10;90.20;;;;;;5034408;28;20033;-79
2021/07/22 03:55:49;;;;;;;22.60;13.30;;;17.00;90.20;;;;;;5034255;28;20025;-79
2021/07/22 03:58:14;;;;;;;23.40;14.18;;;17.00;90.30;;;;;;5035450;28;20038;-78
2021/07/22 04:00:40;;;;;;;24.13;14.10;;;17.00;90.60;;;;;;5018293;28;20049;-78
2021/07/22 04:03:06;;;;;;;20.10;13.48;;;17.00;90.30;;;;;;5017680;28;20065;-78
2021/07/22 04:05:31;;;;;;;22.75;13.60;;;17.00;90.40;;;;;;5034124;28;20118;-79
2021/07/22 04:07:58;;;;;;;21.80;13.23;;;17.00;90.70;;;;;;5017472;28;20033;-79
2021/07/22 04:10:25;;;;;;;20.58;13.23;;;16.90;90.40;;;;;;5034070;28;20029;-79
2021/07/22 04:13:01;;;;;;;21.17;13.55;;;16.90;90.50;;;;;;5034237;28;20030;-79
2021/07/22 04:15:28;;;;;;;22.42;13.65;;;16.90;90.60;;;;;;5034974;28;20488;-79
2021/07/22 04:17:55;;;;;;;19.30;12.77;;;16.90;90.60;;;;;;5017410;28;20129;-79
2021/07/22 04:20:22;;;;;;;22.77;13.82;;;16.90;90.60;;;;;;5033781;28;20108;-78
2021/07/22 04:22:49;;;;;;;23.67;14.15;;;16.90;90.60;;;;;;5033686;28;20116;-78
2021/07/22 04:25:15;;;;;;;21.30;13.60;;;16.90;90.70;;;;;;5040823;28;20057;-78
2021/07/22 04:27:42;;;;;;;22.13;13.90;;;16.90;90.70;;;;;;5053325;28;20388;-78
2021/07/22 04:30:09;;;;;;;19.50;13.27;;;16.90;90.80;;;;;;5053058;28;20036;-78
2021/07/22 04:32:35;;;;;;;20.52;13.48;;;16.90;90.80;;;;;;5053502;28;20538;-78
2021/07/22 04:35:03;;;;;;;23.25;14.38;;;16.90;90.80;;;;;;5053540;28;20116;-78
2021/07/22 04:37:29;;;;;;;22.30;14.35;;;16.90;90.80;;;;;;5053813;28;20036;-78
2021/07/22 04:39:54;;;;;;;23.48;14.25;;;16.90;90.80;;;;;;5036577;28;20025;-79
2021/07/22 04:42:20;;;;;;;27.17;15.48;;;16.90;90.90;;;;;;5053429;28;20056;-79
2021/07/22 04:44:46;;;;;;;25.45;13.93;;;16.90;90.90;;;;;;5036703;28;20021;-79
2021/07/22 04:47:11;;;;;;;23.10;13.95;;;16.90;91.00;;;;;;5036475;28;20552;-79
2021/07/22 04:49:37;;;;;;;23.65;14.05;;;17.00;91.10;;;;;;5053014;28;20037;-79
2021/07/22 04:52:03;;;;;;;22.92;13.27;;;17.00;91.00;;;;;;5036684;28;20037;-79
2021/07/22 04:54:28;;;;;;;22.67;13.52;;;17.00;91.10;;;;;;5036482;28;20033;-79
2021/07/22 04:56:54;;;;;;;19.67;13.70;;;17.00;91.10;;;;;;5036529;28;20033;-79
2021/07/22 04:59:20;;;;;;;23.67;13.48;;;17.10;91.10;;;;;;5051177;28;20041;-77
2021/07/22 05:01:45;;;;;;;24.90;12.55;;;17.10;91.10;;;;;;5033306;28;20110;-78
2021/07/22 05:04:17;;;;;;;20.23;13.43;;;17.10;91.10;;;;;;5049272;28;20023;-78
2021/07/22 05:06:43;;;;;;;20.20;13.13;;;17.20;91.10;;;;;;5037106;28;20071;-78
2021/07/22 05:09:09;;;;;;;24.00;14.07;;;17.10;91.10;;;;;;5036394;28;20473;-78
2021/07/22 05:11:35;;;;;;;22.65;13.02;;;17.20;91.40;;;;;;5031662;28;20083;-78
2021/07/22 05:14:00;;;;;;;20.80;13.77;;;17.20;91.10;;;;;;5054135;28;20043;-78
2021/07/22 05:16:26;;;;;;;21.40;13.15;;;17.20;91.20;;;;;;5050935;28;20029;-78
2021/07/22 05:18:52;;;;;;;20.52;12.80;;;17.20;91.20;;;;;;5019929;28;20095;-78
2021/07/22 05:21:19;;;;;;;24.73;14.57;;;17.30;91.20;;;;;;5035523;28;20037;-78
2021/07/22 05:23:45;;;;;;;22.23;14.05;;;17.30;91.20;;;;;;5053198;28;20124;-78
2021/07/22 05:26:10;;;;;;;22.45;13.50;;;17.30;91.20;;;;;;5036366;28;20075;-78
2021/07/22 05:28:40;;;;;;;22.52;13.40;;;17.40;91.30;;;;;;5052734;28;20017;-78
2021/07/22 05:31:10;;;;;;;23.27;13.70;;;17.40;91.20;;;;;;5053833;28;20033;-77
2021/07/22 05:33:38;;;;;;;20.55;12.95;;;17.40;91.20;;;;;;5053633;28;20029;-77
2021/07/22 05:36:06;;;;;;;20.70;12.80;;;17.40;91.20;;;;;;5054146;28;20044;-77
2021/07/22 05:38:33;;;;;;;19.42;13.40;;;17.50;91.20;;;;;;5052617;28;20039;-78
2021/07/22 05:41:02;;;;;;;20.20;13.82;;;17.50;91.20;;;;;;5018650;28;20044;-77
2021/07/22 05:43:28;;;;;;;22.80;14.93;;;17.60;91.20;;;;;;5052371;28;20025;-79
2021/07/22 05:45:54;;;;;;;23.10;13.85;;;17.50;91.40;;;;;;5052317;28;20043;-79
2021/07/22 05:48:20;;;;;;;22.23;13.90;;;17.50;91.10;;;;;;5053494;28;20528;-79
2021/07/22 05:50:46;;;;;;;22.92;14.18;;;17.60;91.10;;;;;;5052632;28;20083;-79
2021/07/22 05:53:12;;;;;;;21.52;14.18;;;17.60;91.10;;;;;;5052257;28;20070;-79
2021/07/22 05:55:37;;;;;;;21.65;14.35;;;17.60;91.00;;;;;;5035610;28;20033;-79
2021/07/22 05:58:03;;;;;;;19.65;13.57;;;17.60;91.00;;;;;;5035461;28;20052;-78
2021/07/22 06:00:29;;;;;;;21.27;12.82;;;17.60;91.20;;;;;;5018083;28;20057;-77
2021/07/22 06:02:55;;;;;;;19.77;11.82;;;17.70;90.90;;;;;;5064912;28;20053;-79
2021/07/22 06:05:20;;;;;;;22.25;12.60;;;17.70;90.90;;;;;;5053775;28;20115;-78
2021/07/22 06:07:46;;;;;;;21.15;14.07;;;17.70;90.90;;;;;;5046757;28;20067;-78
2021/07/22 06:10:13;;;;;;;19.83;13.05;;;17.70;90.90;;;;;;5072029;28;20021;-79
2021/07/22 06:12:39;;;;;;;21.60;14.38;;;17.80;90.90;;;;;;5053138;28;20031;-76
2021/07/22 06:15:06;;;;;;;20.73;13.35;;;17.80;91.00;;;;;;5061552;28;20029;-78
2021/07/22 06:17:34;;;;;;;22.33;13.35;;;17.80;90.90;;;;;;5054043;28;20151;-77
2021/07/22 06:20:00;;;;;;;22.23;13.30;;;17.90;90.90;;;;;;5053165;28;20542;-78
2021/07/22 06:22:26;;;;;;;19.38;12.70;;;17.90;90.90;;;;;;5063347;28;20036;-77
2021/07/22 06:24:51;;;;;;;18.70;12.43;;;18.00;91.00;;;;;;5060605;28;20075;-77
2021/07/22 06:27:17;;;;;;;19.08;13.07;;;18.00;90.90;;;;;;5054243;28;20548;-77
2021/07/22 06:29:43;;;;;;;20.02;13.48;;;18.10;90.90;;;;;;5056962;28;20108;-78
2021/07/22 06:32:08;;;;;;;20.17;12.75;;;18.20;90.80;;;;;;5062624;28;20083;-78
2021/07/22 06:34:34;;;;;;;20.25;13.95;;;18.20;90.80;;;;;;5058313;28;20108;-79
2021/07/22 06:37:00;;;;;;;18.85;13.05;;;18.30;90.80;;;;;;5056815;28;20549;-80
2021/07/22 06:39:25;;;;;;;15.30;11.07;;;18.40;90.70;;;;;;5054886;28;20058;-80
2021/07/22 06:41:57;;;;;;;17.25;11.55;;;18.50;90.70;;;;;;5060552;28;20033;-78
2021/07/22 06:44:23;;;;;;;19.27;12.88;;;18.50;90.60;;;;;;5052355;28;20166;-78
2021/07/22 06:46:48;;;;;;;18.52;11.95;;;18.50;90.50;;;;;;5040513;28;20498;-78
2021/07/22 06:49:14;;;;;;;16.35;11.50;;;18.60;90.50;;;;;;5051469;28;20114;-79
2021/07/22 06:51:39;;;;;;;19.35;13.40;;;18.70;90.40;;;;;;5051559;28;20033;-78
2021/07/22 06:54:08;;;;;;;20.73;12.18;;;18.80;90.40;;;;;;5055522;28;20519;-79
2021/07/22 06:56:34;;;;;;;18.02;11.27;;;18.90;90.30;;;;;;5067851;28;20025;-79
2021/07/22 06:59:00;;;;;;;16.20;11.63;;;18.90;90.20;;;;;;5047344;28;20035;-78
2021/07/22 07:01:25;;;;;;;17.05;12.07;;;19.00;90.10;;;;;;5064854;28;20492;-77
2021/07/22 07:03:51;;;;;;;17.35;12.10;;;19.00;90.00;;;;;;5040232;28;20025;-78
2021/07/22 07:06:16;;;;;;;16.88;10.48;;;19.10;89.80;;;;;;5061744;28;20093;-78
2021/07/22 07:08:42;;;;;;;17.02;11.07;;;19.10;89.70;;;;;;5062423;28;20029;-79
2021/07/22 07:11:08;;;;;;;18.13;11.82;;;19.10;89.60;;;;;;5065853;28;20114;-78
2021/07/22 07:13:34;;;;;;;15.13;10.50;;;19.20;89.60;;;;;;5058682;28;20124;-77
2021/07/22 07:16:03;;;;;;;16.77;11.40;;;19.30;89.40;;;;;;5065349;28;20158;-78
2021/07/22 07:18:29;;;;;;;17.17;11.57;;;19.20;89.10;;;;;;5052827;28;20039;-78
2021/07/22 07:20:54;;;;;;;16.67;11.32;;;19.30;88.90;;;;;;5067575;28;20104;-79
2021/07/22 07:23:20;;;;;;;18.92;10.60;;;19.30;88.90;;;;;;5071163;28;20029;-78
2021/07/22 07:25:46;;;;;;;14.80;9.65;;;19.40;88.70;;;;;;5057340;28;20419;-79
2021/07/22 07:28:12;;;;;;;16.38;11.23;;;19.40;88.50;;;;;;5055969;28;20025;-78
2021/07/22 07:30:37;;;;;;;15.88;10.60;;;19.50;88.30;;;;;;5055870;28;20373;-79
2021/07/22 07:33:04;;;;;;;16.15;9.88;;;19.60;88.20;;;;;;5054724;28;20033;-79
2021/07/22 07:35:30;;;;;;;14.65;9.35;;;19.80;88.00;;;;;;5038114;28;20036;-80
2021/07/22 07:37:56;;;;;;;19.15;9.55;;;19.90;87.70;;;;;;5038064;28;20029;-79
2021/07/22 07:40:22;;;;;;;16.55;11.27;;;20.10;87.30;;;;;;5037965;28;20424;-78
2021/07/22 07:42:48;;;;;;;13.45;9.10;;;20.20;86.70;;;;;;5037961;28;20055;-78
2021/07/22 07:45:14;;;;;;;13.63;9.57;;;20.30;86.90;;;;;;5038036;28;20029;-77
2021/07/22 07:47:39;;;;;;;19.00;9.77;;;20.40;85.60;;;;;;5038236;28;20052;-79
2021/07/22 07:50:07;;;;;;;13.93;10.02;;;20.60;85.20;;;;;;5038235;28;20056;-78
2021/07/22 07:52:36;;;;;;;14.40;9.52;;;20.60;85.10;;;;;;5055695;28;20029;-79
2021/07/22 07:55:06;;;;;;;14.50;9.25;;;20.60;84.20;;;;;;5038036;28;20028;-78
2021/07/22 07:57:32;;;;;;;15.10;9.05;;;20.60;83.80;;;;;;5063662;28;20019;-77
2021/07/22 07:59:58;;;;;;;13.98;8.43;;;20.70;83.50;;;;;;5055447;28;20026;-78
2021/07/22 08:02:23;;;;;;;15.88;9.20;;;20.70;83.00;;;;;;5044834;28;20121;-78
2021/07/22 08:04:49;;;;;;;16.02;8.95;;;20.70;82.70;;;;;;5064554;28;20036;-79
2021/07/22 08:07:14;;;;;;;16.27;9.65;;;20.80;82.20;;;;;;5040170;28;20057;-79
2021/07/22 08:09:40;;;;;;;13.77;8.65;;;20.90;82.00;;;;;;5057720;28;20031;-79
2021/07/22 08:12:06;;;;;;;16.73;8.77;;;21.00;81.90;;;;;;5074961;28;20125;-80
2021/07/22 08:14:37;;;;;;;16.40;9.80;;;21.10;81.60;;;;;;5058109;28;20116;-80
2021/07/22 08:17:06;;;;;;;12.45;9.35;;;21.20;81.30;;;;;;5058116;28;20032;-81
2021/07/22 08:19:32;;;;;;;15.05;9.57;;;21.30;80.90;;;;;;5073969;28;20032;-81
2021/07/22 08:21:58;;;;;;;14.10;7.95;;;21.50;80.60;;;;;;5056854;28;20484;-78
2021/07/22 08:24:24;;;;;;;13.32;8.32;;;21.60;80.30;;;;;;5075071;28;20078;-76
2021/07/22 08:26:49;;;;;;;11.57;8.25;;;21.80;79.70;;;;;;5074052;28;20104;-81
2021/07/22 08:29:15;;;;;;;12.15;7.72;;;21.90;78.70;;;;;;5075128;28;20577;-80
2021/07/22 08:31:40;;;;;;;10.98;7.13;;;22.00;77.90;;;;;;5073821;28;20037;-80
2021/07/22 08:34:06;;;;;;;16.50;8.80;;;22.00;77.50;;;;;;5075111;28;20365;-77
2021/07/22 08:36:32;;;;;;;12.90;8.95;;;22.10;77.20;;;;;;5073774;28;20031;-77
2021/07/22 08:38:58;;;;;;;14.45;9.52;;;22.10;76.40;;;;;;5074721;28;20096;-79
2021/07/22 08:41:23;;;;;;;13.00;9.15;;;22.10;75.70;;;;;;5074628;28;20496;-79
2021/07/22 08:43:51;;;;;;;11.80;9.48;;;22.10;75.40;;;;;;5073541;28;20036;-79
2021/07/22 08:46:17;;;;;;;11.55;8.63;;;22.10;75.20;;;;;;5073454;28;20099;-80
2021/07/22 08:48:46;;;;;;;13.80;8.85;;;22.10;75.00;;;;;;5073326;28;20021;-79
2021/07/22 08:51:14;;;;;;;12.35;8.82;;;22.20;74.30;;;;;;5074580;28;20028;-81
2021/07/22 08:53:40;;;;;;;11.07;7.93;;;22.20;73.60;;;;;;5056686;28;20040;-80
2021/07/22 08:56:07;;;;;;;14.95;8.73;;;22.30;73.30;;;;;;5074399;28;20047;-79
2021/07/22 08:58:37;;;;;;;13.02;8.55;;;22.50;73.20;;;;;;5073145;28;20115;-78
2021/07/22 09:01:04;;;;;;;11.85;8.15;;;22.60;73.20;;;;;;5053197;28;20381;-78
2021/07/22 09:03:29;;;;;;;12.23;7.28;;;22.80;73.10;;;;;;5054250;28;20025;-78
2021/07/22 09:05:55;;;;;;;9.70;7.35;;;22.90;71.50;;;;;;5053152;28;20094;-80
2021/07/22 09:08:21;;;;;;;11.05;7.05;;;23.00;70.60;;;;;;5036704;28;20025;-80
2021/07/22 09:11:05;;;;;;;9.35;7.15;;;23.10;70.20;;;;;;5053046;28;20025;-78
2021/07/22 09:13:30;;;;;;;;;;;23.10;70.00;;;;;;5054645;28;20040;-78
2021/07/22 09:15:56;;;;;;;9.85;6.72;;;23.20;70.00;;;;;;5053034;28;20295;-79
2021/07/22 09:18:28;;;;;;;9.43;6.32;;;23.20;69.70;;;;;;5052651;28;20090;-79
2021/07/22 09:20:54;;;;;;;12.43;6.85;;;23.30;69.10;;;;;;5052554;28;20098;-78
2021/07/22 09:23:25;;;;;;;9.68;6.22;;;23.40;68.80;;;;;;5052687;28;20028;-79
2021/07/22 09:25:53;;;;;;;9.05;6.07;;;23.40;68.70;;;;;;5052845;28;20119;-79
2021/07/22 09:28:24;;;;;;;8.45;5.85;;;23.50;68.40;;;;;;5053870;28;20021;-80
2021/07/22 09:31:00;;;;;;;10.80;6.78;;;23.60;68.00;;;;;;5053799;28;20051;-78
2021/07/22 09:33:43;;;;;;;7.82;5.43;;;23.70;67.80;;;;;;5053793;28;20120;-79
2021/07/22 09:36:29;;;;;;;8.05;4.93;;;23.80;67.20;;;;;;5054263;28;20036;-79
2021/07/22 09:39:24;;;;;;;8.43;5.43;;;23.90;66.30;;;;;;5053243;28;20033;-78
2021/07/22 09:42:02;;;;;;;8.18;4.93;;;24.00;65.20;;;;;;5052420;28;20029;-77
2021/07/22 09:44:29;;;;;;;8.63;5.35;;;24.00;65.10;;;;;;5053686;28;20384;-78
2021/07/22 09:46:55;;;;;;;8.63;5.18;;;24.00;64.90;;;;;;5053432;28;20025;-79
2021/07/22 09:49:30;;;;;;;7.43;5.13;;;24.00;64.60;;;;;;5053583;28;20029;-78
2021/07/22 09:51:58;;;;;;;6.68;4.82;;;24.10;64.20;;;;;;5036064;28;20029;-79
2021/07/22 09:54:33;;;;;;;8.63;4.95;;;24.10;64.50;;;;;;5036080;28;20036;-80
2021/07/22 09:56:59;;;;;;;8.32;4.57;;;24.10;63.70;;;;;;5053457;28;20025;-78
2021/07/22 09:59:25;;;;;;;7.55;4.85;;;24.20;63.40;;;;;;5053518;28;20487;-80
2021/07/22 10:01:53;;;;;;;7.88;4.90;;;24.20;63.30;;;;;;5035443;28;20053;-78
2021/07/22 10:04:22;;;;;;;7.43;4.72;;;24.30;63.20;;;;;;5052177;28;20354;-79
2021/07/22 10:06:48;;;;;;;8.00;5.03;;;24.40;63.00;;;;;;5051961;28;20108;-78
2021/07/22 10:09:21;;;;;;;7.95;4.38;;;24.50;62.80;;;;;;5052148;28;20071;-79
2021/07/22 10:11:48;;;;;;;8.85;4.97;;;24.50;62.40;;;;;;5052204;28;20044;-80
2021/07/22 10:14:24;;;;;;;7.28;4.50;;;24.70;62.20;;;;;;5053506;28;20029;-80
2021/07/22 10:16:51;;;;;;;8.60;4.50;;;24.80;61.90;;;;;;5035490;28;20072;-80
2021/07/22 10:19:18;;;;;;;7.05;4.10;;;25.00;61.40;;;;;;5052008;28;20029;-80
2021/07/22 10:21:44;;;;;;;7.40;4.93;;;25.20;60.90;;;;;;5035156;28;20032;-82
2021/07/22 10:24:10;;;;;;;8.27;5.20;;;25.30;60.30;;;;;;5051949;28;20028;-82
2021/07/22 10:26:40;;;;;;;8.95;4.72;;;25.50;60.00;;;;;;5035339;28;20025;-79
2021/07/22 10:29:06;;;;;;;10.82;4.50;;;25.70;59.60;;;;;;5057322;28;20036;-80
2021/07/22 10:31:40;;;;;;;9.13;5.03;;;26.00;59.80;;;;;;5057169;28;20056;-79
2021/07/22 10:34:16;;;;;;;;;;;26.30;59.00;;;;;;5057034;28;20535;-81
2021/07/22 10:36:43;;;;;;;7.07;4.38;;;26.40;58.80;;;;;;5055942;28;19911;-82
2021/07/22 10:39:09;;;;;;;6.05;4.07;;;26.40;58.70;;;;;;5055768;28;20041;-79
2021/07/22 10:41:40;;;;;;;7.43;4.32;;;26.50;57.80;;;;;;5056981;28;20044;-80
2021/07/22 10:44:33;;;;;;;6.75;3.67;;;26.60;57.00;;;;;;5057149;28;20086;-80
2021/07/22 10:47:05;;;;;;;7.03;4.05;;;26.60;56.00;;;;;;5052765;28;20025;-82
2021/07/22 10:49:42;;;;;;;6.95;4.75;;;26.50;56.10;;;;;;5039408;28;20029;-81
2021/07/22 10:52:12;;;;;;;8.32;4.57;;;26.30;56.00;;;;;;5055607;28;20032;-80
2021/07/22 10:54:41;;;;;;;6.45;4.40;;;26.20;56.10;;;;;;5038986;28;20029;-79
2021/07/22 10:57:26;;;;;;;8.43;5.10;;;26.00;56.10;;;;;;5056555;28;20499;-80
2021/07/22 10:59:55;;;;;;;8.45;4.90;;;25.80;56.40;;;;;;5056388;28;20032;-80
2021/07/22 11:02:40;;;;;;;8.43;5.10;;;25.60;56.60;;;;;;5038384;28;20111;-81
2021/07/22 11:05:08;;;;;;;7.32;4.75;;;25.60;56.80;;;;;;5055183;28;20025;-80
2021/07/22 11:07:34;;;;;;;8.73;4.60;;;25.50;56.90;;;;;;5054981;28;20029;-82
2021/07/22 11:10:00;;;;;;;7.78;4.65;;;25.60;57.10;;;;;;5022012;28;20051;-81
2021/07/22 11:12:44;;;;;;;7.65;5.10;;;25.50;56.90;;;;;;5055129;28;20412;-82
2021/07/22 11:15:38;;;;;;;7.80;5.03;;;25.60;57.00;;;;;;5055009;28;20389;-80
2021/07/22 11:18:43;;;;;;;7.03;4.18;;;26.20;57.80;;;;;;5054487;28;20540;-82
2021/07/22 11:21:12;;;;;;;6.00;3.70;;;26.80;57.30;;;;;;5054132;28;20431;-82
2021/07/22 11:23:40;;;;;;;6.03;3.72;;;27.20;57.00;;;;;;5056077;28;20100;-79
2021/07/22 11:26:06;;;;;;;7.18;3.95;;;27.40;56.40;;;;;;5056160;28;20145;-81
2021/07/22 11:28:32;;;;;;;6.43;4.25;;;27.40;55.70;;;;;;5055151;28;20447;-80
2021/07/22 11:31:08;;;;;;;6.82;4.05;;;27.50;55.30;;;;;;5056006;28;20029;-82
2021/07/22 11:33:38;;;;;;;9.13;4.47;;;27.50;55.00;;;;;;5055946;28;20087;-80
2021/07/22 11:36:19;;;;;;;5.65;3.75;;;27.50;54.70;;;;;;5055954;28;20060;-81
2021/07/22 11:38:54;;;;;;;7.43;3.97;;;27.50;54.50;;;;;;5053454;28;20044;-81
2021/07/22 11:41:21;;;;;;;6.35;3.90;;;27.50;54.40;;;;;;5054421;28;20035;-80
2021/07/22 11:43:55;;;;;;;8.23;3.97;;;27.60;54.30;;;;;;5055518;28;20118;-81
2021/07/22 11:46:43;;;;;;;5.55;3.47;;;27.60;54.20;;;;;;5038116;28;20427;-80
2021/07/22 11:49:14;;;;;;;6.78;4.45;;;27.60;53.80;;;;;;5054286;28;20036;-82
2021/07/22 11:51:42;;;;;;;5.68;3.83;;;27.60;53.90;;;;;;5054256;28;20028;-79
2021/07/22 11:54:08;;;;;;;6.57;4.18;;;27.80;54.00;;;;;;5055717;28;20029;-77
2021/07/22 11:56:35;;;;;;;8.32;4.25;;;28.10;53.70;;;;;;5054934;28;20024;-76
2021/07/22 11:59:07;;;;;;;6.63;3.55;;;28.30;53.80;;;;;;5037977;28;20021;-79
2021/07/22 12:01:37;;;;;;;6.85;3.50;;;28.60;52.50;;;;;;5055704;28;20523;-78
2021/07/22 12:04:02;;;;;;;6.30;4.28;;;28.80;51.70;;;;;;5055834;28;20028;-79
2021/07/22 12:06:29;;;;;;;5.65;3.45;;;29.10;51.10;;;;;;5055524;28;20021;-78
2021/07/22 12:09:06;;;;;;;5.97;3.42;;;29.30;50.50;;;;;;5055598;28;20477;-81
2021/07/22 12:12:02;;;;;;;5.35;3.55;;;29.50;49.80;;;;;;5055348;28;20029;-81
2021/07/22 12:14:37;;;;;;;7.05;3.83;;;29.70;49.10;;;;;;5055165;28;20056;-79
2021/07/22 12:17:07;;;;;;;5.80;3.67;;;29.70;49.30;;;;;;5054169;28;20032;-78
2021/07/22 12:19:36;;;;;;;5.70;3.33;;;29.70;49.10;;;;;;5055539;28;20113;-78
2021/07/22 12:22:25;;;;;;;4.75;3.28;;;29.70;48.60;;;;;;5053929;28;20029;-78
2021/07/22 12:25:06;;;;;;;5.95;3.65;;;29.80;48.10;;;;;;5055366;28;20078;-79
2021/07/22 12:27:32;;;;;;;5.30;3.50;;;30.00;48.10;;;;;;5055245;28;20090;-79
2021/07/22 12:30:00;;;;;;;4.53;3.40;;;30.20;48.10;;;;;;5055061;28;20017;-78
2021/07/22 12:32:28;;;;;;;5.65;3.45;;;30.40;47.70;;;;;;5037473;28;20021;-78
2021/07/22 12:34:54;;;;;;;4.70;3.00;;;30.50;47.30;;;;;;5053613;28;20064;-78
2021/07/22 12:37:20;;;;;;;5.50;3.30;;;30.60;46.90;;;;;;5054961;28;20025;-77